createdAt,value
2017-11-25T00:01:23.856Z,5.20
2017-11-25T00:03:50.261Z,5.20
2017-11-25T00:06:17.391Z,5.40
2017-11-25T00:08:44.536Z,5.10
2017-11-25T00:11:10.930Z,5.10
2017-11-25T00:13:37.340Z,5.20
2017-11-25T00:16:03.731Z,5.30
2017-11-25T00:18:30.874Z,5.40
2017-11-25T00:20:57.268Z,5.40
2017-11-25T00:23:23.682Z,5.50
2017-11-25T00:25:50.069Z,5.40
2017-11-25T00:28:17.971Z,5.30
2017-11-25T00:30:45.117Z,5.10
2017-11-25T00:33:12.261Z,5.10
2017-11-25T00:35:39.384Z,5.10
2017-11-25T00:38:05.850Z,5.10
2017-11-25T00:40:32.218Z,5.20
2017-11-25T00:42:58.623Z,5.20
2017-11-25T00:45:25.032Z,5.20
2017-11-25T00:47:52.168Z,4.80
2017-11-25T00:50:18.574Z,4.80
2017-11-25T00:52:45.001Z,4.70
2017-11-25T00:55:11.404Z,4.90
2017-11-25T00:57:37.801Z,5.10
2017-11-25T01:00:04.221Z,5.30
2017-11-25T01:02:30.705Z,5.40
2017-11-25T01:04:57.133Z,5.30
2017-11-25T01:07:23.545Z,5.40
2017-11-25T01:09:50.698Z,4.80
2017-11-25T01:12:17.848Z,4.90
2017-11-25T01:14:44.992Z,5.10
2017-11-25T01:17:12.113Z,5.10
2017-11-25T01:19:38.528Z,5.10
2017-11-25T01:22:04.930Z,4.90
2017-11-25T01:24:31.446Z,4.40
2017-11-25T01:26:58.567Z,4.40
2017-11-25T01:29:24.985Z,4.40
2017-11-25T01:31:51.406Z,4.10
2017-11-25T01:34:17.817Z,4.00
2017-11-25T01:36:44.223Z,3.90
2017-11-25T01:39:11.384Z,3.80
2017-11-25T01:41:37.815Z,3.80
2017-11-25T01:44:04.983Z,4.40
2017-11-25T01:46:31.386Z,4.40
2017-11-25T01:48:58.529Z,4.30
2017-11-25T01:51:25.682Z,4.00
